Impacts TAF Board
For situational awareness. Not to be used for flight planning purposes.
IDs:

KAUS - Austin/Bergstrom Int, TX, US

Issued at 1720 UTC 21 May 2022
Updated at 2249 UTC 21 May 2022
Potential Impact None Slight Moderate High
Time2153Z 21/23Z 22/00Z 22/01Z 22/02Z 22/03Z 22/04Z 22/05Z 22/06Z 22/07Z 22/08Z 22/09Z 22/10Z 22/11Z>>
Type OBS PRVL PRVL PRVL PRVL PRVL PRVL PRVL PRVL PRVL PRVL PRVL PRVL PRVL
VIS 10 >6 >6 >6 >6 >6 >6 >6 >6 >6 >6 >6 >6 >6
CIG 250 50 50 50 50 50 50 50 15 15 15 15 15 15
Cover BKN BKN BKN BKN BKN BKN BKN BKN OVC OVC OVC OVC OVC OVC
FltCat VFR VFR VFR VFR VFR VFR VFR VFR MVFR MVFR MVFR MVFR MVFR MVFR
WX -- -SHRA VCTS -SHRA VCTS -SHRA VCTS -SHRA VCTS -SHRA VCTS -SHRA VCTS -SHRA VCTS VCSH VCSH VCSH VCSH VCSH VCSH
WDir 130 70 70 70 70 70 70 70 10 10 10 10 10 10
WSpd 13 11 11 11 11 11 11 11 14 14 14 14 14 14
WGst 20 -- -- -- -- -- -- -- -- -- -- -- -- --
WSHgt -- -- -- -- -- -- -- -- -- -- -- -- -- --
WSDir -- -- -- -- -- -- -- -- -- -- -- -- -- --
WSSpd -- -- -- -- -- -- -- -- -- -- -- -- -- --
Raw TAF
KAUS 211720Z 2118/2224 15012KT P6SM SCT050 SCT100
  FM212300 07011KT P6SM -SHRA VCTS BKN050CB
  FM220600 01014KT P6SM VCSH OVC015
  FM221600 01010KT P6SM BKN025
  FM221800 03008KT P6SM BKN035


Raw METAR
KAUS 212153Z 13013G20KT 10SM FEW060 BKN250 36/21 A2978 RMK AO2 SLP071 T03610206
KAUS 212053Z 17007KT 090V190 10SM FEW070 FEW200 FEW250 37/20 A2979 RMK AO2 SLP075 T03670200 56015
KAUS 211953Z 15008G20KT 9SM FEW060 FEW200 FEW250 36/21 A2981 RMK AO2 SLP080 T03560211

METAR Board
Radar Display
Forecast Discussion
For situational awareness. Not to be used for flight planning purposes.